Time;durP1;ratioP1;P1;durP2;ratioP2;P2;SDS_P1;SDS_P2;PMS_P1;PMS_P2;Temp;Humidity;BMP_temperature;BMP_pressure;BME280_temperature;BME280_humidity;BME280_pressure;Samples;Min_cycle;Max_cycle;Signal;HPM_P1;HPM_P2
2023/09/12 00:01:14;;;;;;;9.73;7.15;;;;;;;;;;4933772;29;20055;-80
2023/09/12 00:03:39;;;;;;;11.35;7.55;;;;;;;;;;4927877;29;20677;-81
2023/09/12 00:06:05;;;;;;;13.32;7.93;;;;;;;;;;4927530;29;20111;-80
2023/09/12 00:08:30;;;;;;;11.95;7.60;;;;;;;;;;4928562;29;20489;-80
2023/09/12 00:11:06;;;;;;;12.85;7.88;;;;;;;;;;4929608;29;20039;-80
2023/09/12 00:13:31;;;;;;;12.10;6.97;;;;;;;;;;4927825;29;20484;-79
2023/09/12 00:15:57;;;;;;;10.80;7.75;;;;;;;;;;4925761;29;20064;-79
2023/09/12 00:18:22;;;;;;;10.63;6.43;;;;;;;;;;4929614;29;20126;-79
2023/09/12 00:20:47;;;;;;;9.88;6.93;;;;;;;;;;4926062;29;20032;-80
2023/09/12 00:23:12;;;;;;;9.23;6.53;;;;;;;;;;4928508;29;20432;-80
2023/09/12 00:25:38;;;;;;;10.55;6.95;;;;;;;;;;4929728;29;20032;-79
2023/09/12 00:28:03;;;;;;;9.90;7.60;;;;;;;;;;4926444;29;20047;-79
2023/09/12 00:30:29;;;;;;;10.80;7.55;;;;;;;;;;4921994;29;20104;-79
2023/09/12 00:32:54;;;;;;;10.40;7.72;;;;;;;;;;4928843;29;20118;-79
2023/09/12 00:35:19;;;;;;;11.07;7.68;;;;;;;;;;4925767;29;20066;-79
2023/09/12 00:37:44;;;;;;;8.38;6.43;;;;;;;;;;4926113;29;20036;-79
2023/09/12 00:40:10;;;;;;;9.63;7.10;;;;;;;;;;4928986;29;20074;-80
2023/09/12 00:42:35;;;;;;;9.80;7.15;;;;;;;;;;4924066;29;20028;-79
2023/09/12 00:45:00;;;;;;;12.40;8.43;;;;;;;;;;4928730;29;20617;-79
2023/09/12 00:47:26;;;;;;;8.15;6.43;;;;;;;;;;4924627;29;20513;-79
2023/09/12 00:49:52;;;;;;;9.15;7.20;;;;;;;;;;4925631;29;20027;-79
2023/09/12 00:52:18;;;;;;;9.57;7.07;;;;;;;;;;4919613;29;20493;-79
2023/09/12 00:54:43;;;;;;;9.88;7.32;;;;;;;;;;4927070;29;20048;-79
2023/09/12 00:57:09;;;;;;;7.72;6.18;;;;;;;;;;4924459;29;20039;-79
2023/09/12 00:59:34;;;;;;;10.82;6.93;;;;;;;;;;4922943;29;20038;-79
2023/09/12 01:02:00;;;;;;;11.65;6.35;;;;;;;;;;4925940;29;20047;-79
2023/09/12 01:04:26;;;;;;;12.40;6.50;;;;;;;;;;4924657;29;20027;-79
2023/09/12 01:06:51;;;;;;;8.20;6.47;;;;;;;;;;4926031;29;20445;-79
2023/09/12 01:09:17;;;;;;;9.88;6.97;;;;;;;;;;4925195;29;20046;-79
2023/09/12 01:11:42;;;;;;;8.02;6.75;;;;;;;;;;4926925;29;20504;-79
2023/09/12 01:14:07;;;;;;;11.68;7.30;;;;;;;;;;4924743;29;20047;-79
2023/09/12 01:16:32;;;;;;;9.50;7.03;;;;;;;;;;4927031;29;20461;-79
2023/09/12 01:18:58;;;;;;;9.57;7.95;;;;;;;;;;4926967;29;20027;-79
2023/09/12 01:21:38;;;;;;;8.57;6.97;;;;;;;;;;4925707;29;20485;-79
2023/09/12 01:24:11;;;;;;;10.32;7.47;;;;;;;;;;4924963;29;20039;-79
2023/09/12 01:26:42;;;;;;;10.07;7.13;;;;;;;;;;4922734;29;20044;-79
2023/09/12 01:29:08;;;;;;;10.13;7.32;;;;;;;;;;4923441;29;20044;-79
2023/09/12 01:31:34;;;;;;;10.18;7.55;;;;;;;;;;4924720;29;20036;-79
2023/09/12 01:34:08;;;;;;;9.75;7.10;;;;;;;;;;4917668;29;20042;-79
2023/09/12 01:36:33;;;;;;;11.00;7.32;;;;;;;;;;4928874;29;20513;-79
2023/09/12 01:38:58;;;;;;;10.32;7.63;;;;;;;;;;4924850;29;20040;-80
2023/09/12 01:41:24;;;;;;;10.68;7.75;;;;;;;;;;4926225;29;20079;-79
2023/09/12 01:43:50;;;;;;;10.88;8.80;;;;;;;;;;4927486;29;20028;-79
2023/09/12 01:46:18;;;;;;;8.68;6.25;;;;;;;;;;4928344;29;20109;-79
2023/09/12 01:48:43;;;;;;;7.32;5.82;;;;;;;;;;4921202;29;20024;-79
2023/09/12 01:51:09;;;;;;;9.25;7.65;;;;;;;;;;4924679;29;20032;-79
2023/09/12 01:53:35;;;;;;;8.80;7.00;;;;;;;;;;4922976;29;20032;-79
2023/09/12 01:56:01;;;;;;;7.57;6.65;;;;;;;;;;4918212;29;20037;-79
2023/09/12 01:58:26;;;;;;;10.73;7.65;;;;;;;;;;4924045;29;20043;-79
2023/09/12 02:00:52;;;;;;;10.75;7.00;;;;;;;;;;4925835;29;20028;-79
2023/09/12 02:03:17;;;;;;;10.50;7.88;;;;;;;;;;4925315;29;20037;-79
2023/09/12 02:05:42;;;;;;;10.93;8.00;;;;;;;;;;4920296;29;20036;-79
2023/09/12 02:08:07;;;;;;;14.07;7.50;;;;;;;;;;4925064;29;20036;-79
2023/09/12 02:10:34;;;;;;;10.93;7.82;;;;;;;;;;4922598;29;20057;-79
2023/09/12 02:12:59;;;;;;;11.38;8.40;;;;;;;;;;4923842;29;20461;-79
2023/09/12 02:15:24;;;;;;;10.57;7.60;;;;;;;;;;4928205;29;20086;-79
2023/09/12 02:17:50;;;;;;;11.02;6.95;;;;;;;;;;4923929;29;20095;-79
2023/09/12 02:20:15;;;;;;;9.88;7.20;;;;;;;;;;4927634;29;20059;-79
2023/09/12 02:22:41;;;;;;;8.45;6.53;;;;;;;;;;4929503;29;20096;-79
2023/09/12 02:25:06;;;;;;;9.15;7.50;;;;;;;;;;4930060;29;20036;-79
2023/09/12 02:27:31;;;;;;;9.68;7.82;;;;;;;;;;4926021;29;20043;-79
2023/09/12 02:29:56;;;;;;;7.75;6.28;;;;;;;;;;4916281;29;20397;-79
2023/09/12 02:32:22;;;;;;;7.88;6.53;;;;;;;;;;4925812;29;20115;-79
2023/09/12 02:34:47;;;;;;;7.20;5.75;;;;;;;;;;4929392;29;20123;-79
2023/09/12 02:37:12;;;;;;;10.15;6.00;;;;;;;;;;4929471;29;20036;-79
2023/09/12 02:39:38;;;;;;;8.05;5.85;;;;;;;;;;4926685;29;20035;-79
2023/09/12 02:42:03;;;;;;;10.45;6.60;;;;;;;;;;4926411;29;20033;-79
2023/09/12 02:44:28;;;;;;;9.90;7.28;;;;;;;;;;4930242;29;20024;-79
2023/09/12 02:46:53;;;;;;;11.93;8.38;;;;;;;;;;4927417;29;20515;-80
2023/09/12 02:49:19;;;;;;;11.90;6.60;;;;;;;;;;4929895;29;20028;-79
2023/09/12 02:51:45;;;;;;;10.35;7.93;;;;;;;;;;4929535;29;20031;-79
2023/09/12 02:54:10;;;;;;;8.20;6.47;;;;;;;;;;4928553;29;20035;-79
2023/09/12 02:56:35;;;;;;;7.13;6.00;;;;;;;;;;4929219;29;20386;-79
2023/09/12 02:59:00;;;;;;;7.18;6.30;;;;;;;;;;4928606;29;20671;-78
2023/09/12 03:01:28;;;;;;;9.15;6.30;;;;;;;;;;4927130;29;20519;-79
2023/09/12 03:03:54;;;;;;;10.50;7.53;;;;;;;;;;4927713;29;20031;-79
2023/09/12 03:06:19;;;;;;;9.60;7.22;;;;;;;;;;4928773;29;20028;-79
2023/09/12 03:08:45;;;;;;;10.52;7.88;;;;;;;;;;4926867;29;20605;-80
2023/09/12 03:11:10;;;;;;;9.80;7.90;;;;;;;;;;4929774;29;20059;-80
2023/09/12 03:13:39;;;;;;;9.60;7.50;;;;;;;;;;4925997;29;20113;-79
2023/09/12 03:16:04;;;;;;;11.88;7.72;;;;;;;;;;4927732;29;20067;-79
2023/09/12 03:18:30;;;;;;;8.32;7.03;;;;;;;;;;4920304;29;20031;-80
2023/09/12 03:20:55;;;;;;;8.05;6.45;;;;;;;;;;4925864;29;20152;-80
2023/09/12 03:23:21;;;;;;;7.47;5.93;;;;;;;;;;4935095;29;20027;-80
2023/09/12 03:25:46;;;;;;;8.80;6.57;;;;;;;;;;4925216;29;20493;-80
2023/09/12 03:28:13;;;;;;;9.70;7.05;;;;;;;;;;4920340;29;20131;-79
2023/09/12 03:30:38;;;;;;;9.93;7.28;;;;;;;;;;4926469;29;20496;-79
2023/09/12 03:33:04;;;;;;;8.85;7.07;;;;;;;;;;4935582;23;20071;-80
2023/09/12 03:35:31;;;;;;;11.40;7.32;;;;;;;;;;4927405;29;20020;-78
2023/09/12 03:37:56;;;;;;;8.48;7.43;;;;;;;;;;4929759;29;20026;-80
2023/09/12 03:40:22;;;;;;;12.15;7.53;;;;;;;;;;4932013;29;20024;-79
2023/09/12 03:42:47;;;;;;;9.43;7.90;;;;;;;;;;4932037;29;20106;-80
2023/09/12 03:45:12;;;;;;;8.63;7.07;;;;;;;;;;4914009;29;20028;-80
2023/09/12 03:47:38;;;;;;;10.80;8.45;;;;;;;;;;4933660;29;20473;-80
2023/09/12 03:50:04;;;;;;;11.07;7.95;;;;;;;;;;4932224;29;20493;-80
2023/09/12 03:52:29;;;;;;;11.05;8.77;;;;;;;;;;4938357;29;20023;-81
2023/09/12 03:54:55;;;;;;;13.77;7.63;;;;;;;;;;4935521;29;20386;-79
2023/09/12 03:57:20;;;;;;;9.25;7.57;;;;;;;;;;4915591;29;20067;-80
2023/09/12 03:59:46;;;;;;;8.68;7.15;;;;;;;;;;4936901;29;20128;-80
2023/09/12 04:02:12;;;;;;;10.88;9.13;;;;;;;;;;4935945;29;20051;-80
2023/09/12 04:04:37;;;;;;;12.68;9.07;;;;;;;;;;4922334;29;20024;-80
2023/09/12 04:07:03;;;;;;;10.57;8.30;;;;;;;;;;4933852;29;20098;-80
2023/09/12 04:09:28;;;;;;;9.98;7.45;;;;;;;;;;4935011;29;20488;-79
2023/09/12 04:11:53;;;;;;;11.60;8.07;;;;;;;;;;4928275;29;20039;-80
2023/09/12 04:14:20;;;;;;;13.13;8.75;;;;;;;;;;4930824;29;20523;-80
2023/09/12 04:16:45;;;;;;;12.77;8.75;;;;;;;;;;4936411;29;20040;-79
2023/09/12 04:19:10;;;;;;;11.25;8.25;;;;;;;;;;4933083;29;20044;-79
2023/09/12 04:21:36;;;;;;;17.73;9.00;;;;;;;;;;4916537;29;20035;-79
2023/09/12 04:24:01;;;;;;;9.18;6.80;;;;;;;;;;4931762;29;20058;-79
2023/09/12 04:26:26;;;;;;;8.75;7.03;;;;;;;;;;4918701;29;20027;-79
2023/09/12 04:28:51;;;;;;;8.35;6.97;;;;;;;;;;4931556;29;20059;-78
2023/09/12 04:31:17;;;;;;;10.35;7.78;;;;;;;;;;4932424;29;20060;-78
2023/09/12 04:33:42;;;;;;;8.95;7.00;;;;;;;;;;4931123;29;20039;-79
2023/09/12 04:36:07;;;;;;;9.57;7.00;;;;;;;;;;4931140;29;20441;-78
2023/09/12 04:38:33;;;;;;;10.10;7.25;;;;;;;;;;4933702;29;20091;-78
2023/09/12 04:41:04;;;;;;;8.77;6.57;;;;;;;;;;4931220;29;20115;-79
2023/09/12 04:43:30;;;;;;;8.10;6.47;;;;;;;;;;4928240;29;20115;-79
2023/09/12 04:45:55;;;;;;;9.02;6.13;;;;;;;;;;4936732;29;20307;-78
2023/09/12 04:48:20;;;;;;;14.02;7.88;;;;;;;;;;4931721;29;20056;-79
2023/09/12 04:50:46;;;;;;;12.60;8.32;;;;;;;;;;4927553;29;20020;-79
2023/09/12 04:53:11;;;;;;;13.20;9.43;;;;;;;;;;4916472;29;20480;-78
2023/09/12 04:55:36;;;;;;;10.60;8.45;;;;;;;;;;4929640;29;20511;-80
2023/09/12 04:58:01;;;;;;;11.35;8.55;;;;;;;;;;4932016;29;20094;-80
2023/09/12 05:00:27;;;;;;;9.18;7.57;;;;;;;;;;4926339;29;20058;-80
2023/09/12 05:02:52;;;;;;;9.90;7.35;;;;;;;;;;4927702;29;20031;-80
2023/09/12 05:05:17;;;;;;;9.35;7.25;;;;;;;;;;4922389;29;20016;-79
2023/09/12 05:07:42;;;;;;;9.57;6.70;;;;;;;;;;4921365;29;20046;-80
2023/09/12 05:10:08;;;;;;;9.23;7.43;;;;;;;;;;4925575;29;20042;-79
2023/09/12 05:12:33;;;;;;;13.75;9.95;;;;;;;;;;4934208;29;20102;-78
2023/09/12 05:14:58;;;;;;;25.23;12.93;;;;;;;;;;4934167;29;20125;-79
2023/09/12 05:17:24;;;;;;;20.73;10.88;;;;;;;;;;4933343;29;20415;-79
2023/09/12 05:19:49;;;;;;;13.15;8.45;;;;;;;;;;4929806;29;20023;-80
2023/09/12 05:22:15;;;;;;;10.93;8.38;;;;;;;;;;4930444;29;20413;-80
2023/09/12 05:24:40;;;;;;;10.05;7.70;;;;;;;;;;4929965;29;20023;-80
2023/09/12 05:27:05;;;;;;;10.43;7.00;;;;;;;;;;4923338;29;20416;-80
2023/09/12 05:29:31;;;;;;;14.80;7.40;;;;;;;;;;4929921;29;20629;-80
2023/09/12 05:31:56;;;;;;;12.55;7.43;;;;;;;;;;4922595;29;20032;-80
2023/09/12 05:34:21;;;;;;;12.27;8.40;;;;;;;;;;4927834;29;20036;-80
2023/09/12 05:36:47;;;;;;;10.18;7.40;;;;;;;;;;4923064;29;20488;-80
2023/09/12 05:39:13;;;;;;;11.30;9.20;;;;;;;;;;4929335;29;20058;-80
2023/09/12 05:41:39;;;;;;;10.57;7.70;;;;;;;;;;4933110;29;20031;-80
2023/09/12 05:44:04;;;;;;;11.23;8.43;;;;;;;;;;4929075;29;20093;-80
2023/09/12 05:46:30;;;;;;;12.65;7.93;;;;;;;;;;4934639;29;20400;-79
2023/09/12 05:48:55;;;;;;;10.27;7.90;;;;;;;;;;4928136;29;20063;-80
2023/09/12 05:51:20;;;;;;;10.52;8.43;;;;;;;;;;4922926;29;20111;-80
2023/09/12 05:53:45;;;;;;;10.23;7.97;;;;;;;;;;4936175;29;20555;-80
2023/09/12 05:56:11;;;;;;;10.73;8.00;;;;;;;;;;4930368;29;20035;-80
2023/09/12 05:58:41;;;;;;;10.10;7.78;;;;;;;;;;4932634;29;20492;-79
2023/09/12 06:01:06;;;;;;;10.52;8.32;;;;;;;;;;4930468;29;20032;-80
2023/09/12 06:03:32;;;;;;;13.35;7.90;;;;;;;;;;4915972;29;20162;-80
2023/09/12 06:05:57;;;;;;;11.10;8.07;;;;;;;;;;4926995;29;20032;-80
2023/09/12 06:08:23;;;;;;;11.00;8.35;;;;;;;;;;4919956;29;20047;-80
2023/09/12 06:10:53;;;;;;;11.90;8.93;;;;;;;;;;4931796;29;20047;-80
2023/09/12 06:13:18;;;;;;;9.98;8.27;;;;;;;;;;4928884;29;20436;-79
2023/09/12 06:15:43;;;;;;;12.32;9.13;;;;;;;;;;4932541;29;20047;-80
2023/09/12 06:18:09;;;;;;;11.60;8.73;;;;;;;;;;4924918;29;20040;-80
2023/09/12 06:20:34;;;;;;;12.88;9.50;;;;;;;;;;4931626;29;20055;-80
2023/09/12 06:22:59;;;;;;;9.80;8.57;;;;;;;;;;4927708;29;20067;-80
2023/09/12 06:25:24;;;;;;;12.68;9.93;;;;;;;;;;4934628;29;20403;-80
2023/09/12 06:27:50;;;;;;;12.65;9.55;;;;;;;;;;4930359;29;20473;-80
2023/09/12 06:30:15;;;;;;;15.00;11.73;;;;;;;;;;4927608;29;20033;-80
2023/09/12 06:32:40;;;;;;;14.95;11.57;;;;;;;;;;4925455;29;20079;-80
2023/09/12 06:35:06;;;;;;;15.20;11.68;;;;;;;;;;4926920;29;20032;-80
2023/09/12 06:37:31;;;;;;;17.48;11.45;;;;;;;;;;4929477;29;20503;-80
2023/09/12 06:39:56;;;;;;;15.93;11.63;;;;;;;;;;4923524;29;20031;-80
2023/09/12 06:42:22;;;;;;;16.58;12.95;;;;;;;;;;4922674;29;20640;-80
2023/09/12 06:44:47;;;;;;;16.17;12.15;;;;;;;;;;4930138;29;20676;-80
2023/09/12 06:47:13;;;;;;;12.82;10.73;;;;;;;;;;4928475;29;20115;-80
2023/09/12 06:49:38;;;;;;;15.27;11.32;;;;;;;;;;4934038;29;20058;-80
2023/09/12 06:52:04;;;;;;;15.35;11.32;;;;;;;;;;4932460;29;20376;-80
2023/09/12 06:54:29;;;;;;;15.32;11.55;;;;;;;;;;4926062;29;20389;-80
2023/09/12 06:56:54;;;;;;;16.38;12.55;;;;;;;;;;4922620;29;20028;-80
2023/09/12 06:59:19;;;;;;;14.63;11.07;;;;;;;;;;4926220;29;20042;-80
2023/09/12 07:01:44;;;;;;;17.27;10.65;;;;;;;;;;4931640;29;20027;-80
2023/09/12 07:04:10;;;;;;;14.25;10.35;;;;;;;;;;4935641;29;20082;-80
2023/09/12 07:06:35;;;;;;;13.02;10.38;;;;;;;;;;4934693;29;20055;-79
2023/09/12 07:09:00;;;;;;;12.53;10.47;;;;;;;;;;4917348;29;20024;-80
2023/09/12 07:11:25;;;;;;;21.48;12.32;;;;;;;;;;4931994;29;20648;-80
2023/09/12 07:13:51;;;;;;;15.98;11.23;;;;;;;;;;4930909;29;20031;-80
2023/09/12 07:16:16;;;;;;;18.70;14.27;;;;;;;;;;4928504;29;20492;-80
2023/09/12 07:18:41;;;;;;;12.95;10.20;;;;;;;;;;4927999;29;20363;-79
2023/09/12 07:21:06;;;;;;;18.55;13.70;;;;;;;;;;4926632;29;20086;-80
2023/09/12 07:23:32;;;;;;;12.93;11.52;;;;;;;;;;4929741;29;20114;-80
2023/09/12 07:25:57;;;;;;;16.77;11.85;;;;;;;;;;4927009;29;20087;-79
2023/09/12 07:28:23;;;;;;;13.07;9.75;;;;;;;;;;4933974;29;20055;-80
2023/09/12 07:30:48;;;;;;;12.45;9.43;;;;;;;;;;4929042;29;20022;-80
2023/09/12 07:33:14;;;;;;;14.50;9.95;;;;;;;;;;4931480;29;20055;-80
2023/09/12 07:35:39;;;;;;;17.63;10.02;;;;;;;;;;4934074;29;20408;-80
2023/09/12 07:38:04;;;;;;;12.82;10.57;;;;;;;;;;4932156;29;20028;-80
2023/09/12 07:40:29;;;;;;;14.93;11.47;;;;;;;;;;4928411;29;20063;-79
2023/09/12 07:42:55;;;;;;;14.63;9.52;;;;;;;;;;4922448;29;20399;-80
2023/09/12 07:45:20;;;;;;;11.95;9.07;;;;;;;;;;4936240;29;20063;-80
2023/09/12 07:47:45;;;;;;;9.88;7.53;;;;;;;;;;4933100;29;20026;-80
2023/09/12 07:50:10;;;;;;;14.63;10.05;;;;;;;;;;4934954;29;20032;-80
2023/09/12 07:52:36;;;;;;;13.50;9.23;;;;;;;;;;4930276;29;20464;-80
2023/09/12 07:55:02;;;;;;;11.93;8.57;;;;;;;;;;4930616;29;20276;-80
2023/09/12 07:57:28;;;;;;;16.13;12.05;;;;;;;;;;4933447;29;20282;-80
2023/09/12 07:59:53;;;;;;;13.45;9.18;;;;;;;;;;4937795;29;20035;-80
2023/09/12 08:02:18;;;;;;;9.25;8.10;;;;;;;;;;4934658;29;20068;-80
2023/09/12 08:04:43;;;;;;;9.90;8.10;;;;;;;;;;4932818;29;20425;-80
2023/09/12 08:07:09;;;;;;;15.37;9.83;;;;;;;;;;4924528;29;20288;-80
2023/09/12 08:09:51;;;;;;;10.97;9.53;;;;;;;;;;4926617;29;20394;-79
2023/09/12 08:12:16;;;;;;;;;;;;;;;;;;4931858;29;20288;-80
2023/09/12 08:14:41;;;;;;;10.73;8.27;;;;;;;;;;4934537;29;19918;-81
2023/09/12 08:17:06;;;;;;;11.00;7.80;;;;;;;;;;4931874;29;20276;-80
2023/09/12 08:19:31;;;;;;;12.60;8.32;;;;;;;;;;4931239;29;20272;-80
2023/09/12 08:21:57;;;;;;;9.80;7.03;;;;;;;;;;4925737;29;20123;-81
2023/09/12 08:24:22;;;;;;;8.83;5.90;;;;;;;;;;4925980;29;20032;-80
2023/09/12 08:26:47;;;;;;;9.63;7.13;;;;;;;;;;4937374;29;20279;-81
2023/09/12 08:29:12;;;;;;;12.35;7.28;;;;;;;;;;4935647;29;20367;-80
2023/09/12 08:31:37;;;;;;;8.67;6.30;;;;;;;;;;4932301;29;20027;-80
2023/09/12 08:34:03;;;;;;;9.60;6.10;;;;;;;;;;4931171;29;20275;-81
2023/09/12 08:36:28;;;;;;;9.48;6.63;;;;;;;;;;4925964;29;20701;-81
2023/09/12 08:38:53;;;;;;;11.13;6.55;;;;;;;;;;4930555;29;20031;-80
2023/09/12 08:41:18;;;;;;;9.45;5.97;;;;;;;;;;4930775;29;20103;-80
2023/09/12 08:43:44;;;;;;;10.10;6.78;;;;;;;;;;4934996;29;20439;-80
2023/09/12 08:46:10;;;;;;;10.38;6.82;;;;;;;;;;4928042;29;20147;-80
2023/09/12 08:48:37;;;;;;;10.30;6.47;;;;;;;;;;4939511;28;20055;-80
2023/09/12 08:51:04;;;;;;;11.98;6.75;;;;;;;;;;4928794;29;20493;-79
2023/09/12 08:53:29;;;;;;;13.25;8.38;;;;;;;;;;4926090;29;20035;-81
2023/09/12 08:55:54;;;;;;;13.13;7.05;;;;;;;;;;4929816;29;20035;-80
2023/09/12 08:58:20;;;;;;;13.55;5.25;;;;;;;;;;4926703;29;20248;-80
2023/09/12 09:00:45;;;;;;;11.70;5.80;;;;;;;;;;4925438;29;20040;-80
2023/09/12 09:03:11;;;;;;;10.55;5.82;;;;;;;;;;4927701;29;20027;-80
2023/09/12 09:05:37;;;;;;;10.90;5.63;;;;;;;;;;4926542;29;20451;-81
2023/09/12 09:08:03;;;;;;;9.63;5.55;;;;;;;;;;4931861;29;20473;-80
2023/09/12 09:10:32;;;;;;;12.18;6.07;;;;;;;;;;4929917;29;20118;-80
2023/09/12 09:12:57;;;;;;;9.15;5.20;;;;;;;;;;4926147;29;20070;-79
2023/09/12 09:15:27;;;;;;;13.77;6.10;;;;;;;;;;4925917;29;20036;-80
2023/09/12 09:17:53;;;;;;;14.65;7.30;;;;;;;;;;4923899;29;20288;-81
2023/09/12 09:20:22;;;;;;;12.95;5.68;;;;;;;;;;4913152;29;20036;-81
2023/09/12 09:22:55;;;;;;;16.25;5.90;;;;;;;;;;4930568;29;20478;-80
2023/09/12 09:25:21;;;;;;;12.50;7.47;;;;;;;;;;4932738;29;20055;-81
2023/09/12 09:27:46;;;;;;;12.38;6.80;;;;;;;;;;4932652;29;20504;-81
2023/09/12 09:30:11;;;;;;;16.13;7.40;;;;;;;;;;4926825;29;20042;-80
2023/09/12 09:32:36;;;;;;;11.85;6.70;;;;;;;;;;4924670;29;20279;-80
2023/09/12 09:37:30;;;;;;;12.15;5.50;;;;;;;;;;4895898;29;20107;-79
2023/09/12 09:39:55;;;;;;;14.47;4.97;;;;;;;;;;4898183;29;20033;-80
2023/09/12 09:42:21;;;;;;;14.85;5.85;;;;;;;;;;4898011;29;20285;-80
2023/09/12 09:44:47;;;;;;;12.87;7.37;;;;;;;;;;4899327;29;20409;-80
2023/09/12 09:47:12;;;;;;;10.43;5.40;;;;;;;;;;4897784;29;20268;-80
2023/09/12 09:49:37;;;;;;;11.68;5.65;;;;;;;;;;4898067;29;20553;-79
2023/09/12 09:52:04;;;;;;;9.15;5.00;;;;;;;;;;4897548;29;20092;-80
2023/09/12 09:54:29;;;;;;;12.88;5.57;;;;;;;;;;4898175;29;20064;-80
2023/09/12 09:56:55;;;;;;;12.50;5.17;;;;;;;;;;4897778;29;20405;-77
2023/09/12 09:59:21;;;;;;;14.45;5.05;;;;;;;;;;4897420;29;20277;-77
2023/09/12 10:01:48;;;;;;;15.35;5.80;;;;;;;;;;4897109;29;20457;-78
2023/09/12 10:04:14;;;;;;;11.95;5.90;;;;;;;;;;4888475;29;20473;-77
2023/09/12 10:06:42;;;;;;;10.43;5.72;;;;;;;;;;4896665;29;20029;-76
2023/09/12 10:09:09;;;;;;;15.00;8.00;;;;;;;;;;4897228;29;20545;-77
2023/09/12 10:11:35;;;;;;;13.80;6.03;;;;;;;;;;4895701;29;20071;-77
2023/09/12 10:14:03;;;;;;;14.27;7.07;;;;;;;;;;4895633;29;20036;-76
2023/09/12 10:16:45;;;;;;;14.00;4.93;;;;;;;;;;4895450;29;21818;-76
2023/09/12 10:19:17;;;;;;;9.00;4.40;;;;;;;;;;4892341;29;20394;-76
2023/09/12 10:21:46;;;;;;;15.95;5.03;;;;;;;;;;4895460;29;20029;-76
2023/09/12 10:24:12;;;;;;;13.05;5.25;;;;;;;;;;4894715;29;20037;-76
2023/09/12 10:26:42;;;;;;;14.93;4.35;;;;;;;;;;4891939;29;20653;-76
2023/09/12 10:29:08;;;;;;;11.85;4.60;;;;;;;;;;4895220;29;20183;-75
2023/09/12 10:31:33;;;;;;;10.32;4.47;;;;;;;;;;4895136;29;20726;-75
2023/09/12 10:33:59;;;;;;;12.95;5.63;;;;;;;;;;4895526;29;20483;-75
2023/09/12 10:36:25;;;;;;;7.97;4.55;;;;;;;;;;4895796;29;20096;-75
2023/09/12 10:38:51;;;;;;;15.25;4.97;;;;;;;;;;4897906;29;20074;-75
2023/09/12 10:41:16;;;;;;;9.13;4.88;;;;;;;;;;4898815;29;20406;-75
2023/09/12 10:43:42;;;;;;;13.60;5.13;;;;;;;;;;4899123;29;20036;-75
2023/09/12 10:46:08;;;;;;;8.75;4.32;;;;;;;;;;4894188;29;20039;-75
2023/09/12 10:48:35;;;;;;;12.77;6.72;;;;;;;;;;4898969;29;20037;-76
2023/09/12 10:51:00;;;;;;;11.05;4.75;;;;;;;;;;4898576;29;20059;-74
2023/09/12 10:53:26;;;;;;;16.88;4.22;;;;;;;;;;4898553;29;20071;-75
2023/09/12 10:55:59;;;;;;;15.13;6.32;;;;;;;;;;4898348;29;20034;-76
2023/09/12 10:58:24;;;;;;;12.05;5.53;;;;;;;;;;4898369;29;20116;-75
2023/09/12 11:01:12;;;;;;;9.60;4.37;;;;;;;;;;4899152;29;20484;-80
2023/09/12 11:03:38;;;;;;;16.45;7.93;;;;;;;;;;4896578;29;20281;-80
2023/09/12 11:06:04;;;;;;;14.18;8.02;;;;;;;;;;4898784;29;20115;-80
2023/09/12 11:08:35;;;;;;;13.05;6.70;;;;;;;;;;4905604;29;20037;-80
2023/09/12 11:11:21;;;;;;;10.73;4.28;;;;;;;;;;4900305;29;20044;-80
2023/09/12 11:13:46;;;;;;;12.00;5.75;;;;;;;;;;4899779;29;20116;-80
2023/09/12 11:16:17;;;;;;;9.35;3.67;;;;;;;;;;4901219;29;20413;-80
2023/09/12 11:19:11;;;;;;;11.52;4.50;;;;;;;;;;4908429;29;20043;-80
2023/09/12 11:21:37;;;;;;;13.50;5.15;;;;;;;;;;4899097;29;20486;-80
2023/09/12 11:24:03;;;;;;;8.57;5.32;;;;;;;;;;4900994;29;20100;-80
2023/09/12 11:26:29;;;;;;;19.98;5.82;;;;;;;;;;4900955;29;20068;-79
2023/09/12 11:28:55;;;;;;;10.32;3.70;;;;;;;;;;4901931;29;20037;-81
2023/09/12 11:31:26;;;;;;;10.10;3.78;;;;;;;;;;4897681;29;20048;-80
2023/09/12 11:33:52;;;;;;;13.00;4.00;;;;;;;;;;4896959;29;20099;-80
2023/09/12 11:36:18;;;;;;;16.67;6.68;;;;;;;;;;4904227;29;20041;-80
2023/09/12 11:38:49;;;;;;;11.25;5.15;;;;;;;;;;4899348;29;20060;-81
2023/09/12 11:41:14;;;;;;;13.05;4.25;;;;;;;;;;4899011;29;20044;-81
2023/09/12 11:43:40;;;;;;;8.02;3.97;;;;;;;;;;4900892;29;20036;-80
2023/09/12 11:46:07;;;;;;;16.75;4.63;;;;;;;;;;4897677;29;20036;-80
2023/09/12 11:48:32;;;;;;;12.38;5.38;;;;;;;;;;4897864;29;20501;-80
2023/09/12 11:50:58;;;;;;;8.60;4.70;;;;;;;;;;4904925;29;20043;-80
2023/09/12 11:53:25;;;;;;;12.18;5.45;;;;;;;;;;4898396;29;20045;-80
2023/09/12 11:55:52;;;;;;;9.52;3.88;;;;;;;;;;4898272;29;20056;-80
2023/09/12 11:58:19;;;;;;;10.93;3.72;;;;;;;;;;4898316;29;20035;-80
2023/09/12 12:00:46;;;;;;;10.82;3.80;;;;;;;;;;4898280;29;20025;-80
2023/09/12 12:03:11;;;;;;;11.52;3.78;;;;;;;;;;4904533;29;20076;-80
2023/09/12 12:05:37;;;;;;;15.98;5.45;;;;;;;;;;4898496;29;20071;-81
2023/09/12 12:08:02;;;;;;;11.60;4.20;;;;;;;;;;4897170;29;20070;-80
2023/09/12 12:10:28;;;;;;;12.30;4.18;;;;;;;;;;4896868;29;20292;-79
2023/09/12 12:12:54;;;;;;;11.13;3.70;;;;;;;;;;4896722;29;20078;-79
2023/09/12 12:15:19;;;;;;;12.27;3.45;;;;;;;;;;4896967;29;20080;-80
2023/09/12 12:17:44;;;;;;;9.32;3.30;;;;;;;;;;4897711;29;20029;-80
2023/09/12 12:20:10;;;;;;;13.37;3.90;;;;;;;;;;4898872;29;20029;-80
2023/09/12 12:22:39;;;;;;;10.82;3.60;;;;;;;;;;4899481;29;20545;-80
2023/09/12 12:25:08;;;;;;;11.93;3.60;;;;;;;;;;4897526;29;20370;-80
2023/09/12 12:27:38;;;;;;;9.68;4.00;;;;;;;;;;4900875;29;20147;-81
2023/09/12 12:30:03;;;;;;;10.93;3.75;;;;;;;;;;4905213;29;20033;-81
2023/09/12 12:32:29;;;;;;;9.75;5.55;;;;;;;;;;4898791;29;20518;-81
2023/09/12 12:34:54;;;;;;;8.27;4.03;;;;;;;;;;4897623;29;20036;-80
2023/09/12 12:37:19;;;;;;;10.32;3.80;;;;;;;;;;4897402;29;20036;-80
2023/09/12 12:39:44;;;;;;;12.25;5.85;;;;;;;;;;4898333;29;20111;-81
2023/09/12 12:42:10;;;;;;;13.40;5.27;;;;;;;;;;4897960;29;20037;-80
2023/09/12 12:44:36;;;;;;;11.60;3.70;;;;;;;;;;4897444;29;20285;-80
2023/09/12 12:47:04;;;;;;;11.32;4.38;;;;;;;;;;4895724;29;20052;-80
2023/09/12 12:49:35;;;;;;;10.02;4.85;;;;;;;;;;4896861;29;20241;-80
2023/09/12 12:52:00;;;;;;;;;;;;;;;;;;4897088;29;20052;-80
2023/09/12 12:54:25;;;;;;;15.48;4.18;;;;;;;;;;4897089;29;19915;-80
2023/09/12 12:56:51;;;;;;;8.50;3.67;;;;;;;;;;4894673;29;20133;-80
2023/09/12 12:59:16;;;;;;;14.75;3.90;;;;;;;;;;4893157;29;20409;-80
2023/09/12 13:01:44;;;;;;;10.45;3.78;;;;;;;;;;4897580;29;20112;-80
2023/09/12 13:04:09;;;;;;;12.75;3.92;;;;;;;;;;4893613;29;20171;-80
2023/09/12 13:06:37;;;;;;;8.85;3.33;;;;;;;;;;4896110;29;20068;-80
2023/09/12 13:09:06;;;;;;;11.82;4.25;;;;;;;;;;4895272;29;20044;-80
2023/09/12 13:11:34;;;;;;;10.02;3.53;;;;;;;;;;4896421;29;20031;-80
2023/09/12 13:14:00;;;;;;;9.88;3.60;;;;;;;;;;4896294;29;20044;-81
2023/09/12 13:16:25;;;;;;;11.20;3.80;;;;;;;;;;4902865;29;20033;-80
2023/09/12 13:18:50;;;;;;;13.23;4.47;;;;;;;;;;4896817;29;20024;-80
2023/09/12 13:21:15;;;;;;;14.63;4.33;;;;;;;;;;4896450;29;20301;-80
2023/09/12 13:23:40;;;;;;;8.47;3.63;;;;;;;;;;4896393;29;20056;-80
2023/09/12 13:26:07;;;;;;;9.90;4.00;;;;;;;;;;4896356;29;20637;-80
2023/09/12 13:28:32;;;;;;;15.68;6.57;;;;;;;;;;4896486;29;20032;-81
2023/09/12 13:30:57;;;;;;;15.70;5.17;;;;;;;;;;4895761;29;20095;-80
2023/09/12 13:33:23;;;;;;;9.32;3.90;;;;;;;;;;4900155;29;20045;-81
2023/09/12 13:35:49;;;;;;;13.73;4.15;;;;;;;;;;4895414;29;20036;-81
2023/09/12 13:38:16;;;;;;;10.00;3.47;;;;;;;;;;4896490;29;20115;-80
2023/09/12 13:40:42;;;;;;;9.30;3.65;;;;;;;;;;4894626;29;20032;-80
2023/09/12 13:43:07;;;;;;;9.77;3.70;;;;;;;;;;4896041;29;20036;-80
2023/09/12 13:45:33;;;;;;;14.30;4.07;;;;;;;;;;4904733;29;20433;-81
2023/09/12 13:47:59;;;;;;;12.82;3.63;;;;;;;;;;4896327;29;20036;-80
2023/09/12 13:50:24;;;;;;;11.73;4.03;;;;;;;;;;4894021;29;20505;-81
2023/09/12 13:52:50;;;;;;;9.77;3.63;;;;;;;;;;4910777;29;20036;-81
2023/09/12 13:55:16;;;;;;;6.63;3.27;;;;;;;;;;4895384;29;20045;-80
2023/09/12 13:57:41;;;;;;;10.88;3.67;;;;;;;;;;4895269;29;20119;-81
2023/09/12 14:00:06;;;;;;;10.50;3.17;;;;;;;;;;4896277;29;20055;-81
2023/09/12 14:02:34;;;;;;;7.80;3.38;;;;;;;;;;4895889;29;20111;-81
2023/09/12 14:05:00;;;;;;;10.97;3.70;;;;;;;;;;4895914;29;20148;-80
2023/09/12 14:07:25;;;;;;;7.68;3.70;;;;;;;;;;4896107;29;20052;-81
2023/09/12 14:09:54;;;;;;;12.85;4.60;;;;;;;;;;4895864;29;20033;-80
2023/09/12 14:12:19;;;;;;;11.98;4.47;;;;;;;;;;4898601;29;20397;-80
2023/09/12 14:14:45;;;;;;;17.40;5.13;;;;;;;;;;4899537;29;20029;-81
2023/09/12 14:17:10;;;;;;;11.53;4.00;;;;;;;;;;4900249;29;20281;-80
2023/09/12 14:19:35;;;;;;;10.13;3.50;;;;;;;;;;4900208;29;20081;-80
2023/09/12 14:22:00;;;;;;;9.50;3.60;;;;;;;;;;4900559;29;20032;-81
2023/09/12 14:24:26;;;;;;;9.98;4.03;;;;;;;;;;4900824;29;20068;-80
2023/09/12 14:26:51;;;;;;;9.73;4.03;;;;;;;;;;4900117;29;20048;-80
2023/09/12 14:29:16;;;;;;;10.20;3.57;;;;;;;;;;4900773;29;20032;-80